Notice: Undefined index: station in /home3/dimtiris/public_html/webApp/metar/index.php on line 4

Metar

Weather conditions for all airports of the world. Just type the ICAO code of an airport.

LGAV 250020Z 16003KT 9999 FEW030 16/11 Q1007 NOSIG

STATION LGAV
OBSERVED Thu Apr 24, 18:20 MDT
NOW Thu Apr 24, 18:34 MDT
AGE 14 min ago
WIND SSE at 3 mph
VISIBILITY 16 miles
CONDITIONS
CLOUDS partly cloudy
TEMP 61°F (16°C)
DEWPT 52°F (11°C)
HUMIDITY 72%
BAROMETER 1007 hPa (29.74 in Hg)

Get weather info from other station:

Some ICAO codes to try: